sensor_id;sensor_type;location;lat;lon;timestamp;pressure;altitude;pressure_sealevel;temperature;humidity
22653;BME280;11493;43.344;26.226;2022-08-18T00:02:20;98762.47;;;23.02;74.55
22653;BME280;11493;43.344;26.226;2022-08-18T00:04:56;98756.91;;;22.95;74.95
22653;BME280;11493;43.344;26.226;2022-08-18T00:07:29;98761.75;;;22.87;75.43
22653;BME280;11493;43.344;26.226;2022-08-18T00:09:57;98760.13;;;22.93;75.35
22653;BME280;11493;43.344;26.226;2022-08-18T00:12:30;98763.72;;;22.94;75.52
22653;BME280;11493;43.344;26.226;2022-08-18T00:14:59;98755.75;;;22.89;75.93
22653;BME280;11493;43.344;26.226;2022-08-18T00:17:33;98755.78;;;22.85;76.12
22653;BME280;11493;43.344;26.226;2022-08-18T00:20:04;98759.75;;;22.91;76.00
22653;BME280;11493;43.344;26.226;2022-08-18T00:22:32;98759.81;;;22.81;76.26
22653;BME280;11493;43.344;26.226;2022-08-18T00:24:59;98752.19;;;22.74;76.55
22653;BME280;11493;43.344;26.226;2022-08-18T00:27:30;98765.78;;;22.86;76.31
22653;BME280;11493;43.344;26.226;2022-08-18T00:29:59;98768.94;;;22.92;76.33
22653;BME280;11493;43.344;26.226;2022-08-18T00:32:37;98778.94;;;22.97;75.55
22653;BME280;11493;43.344;26.226;2022-08-18T00:37:34;98772.19;;;22.87;75.85
22653;BME280;11493;43.344;26.226;2022-08-18T00:40:05;98773.81;;;22.77;76.72
22653;BME280;11493;43.344;26.226;2022-08-18T00:42:36;98786.63;;;22.85;77.07
22653;BME280;11493;43.344;26.226;2022-08-18T00:45:07;98777.03;;;22.79;77.47
22653;BME280;11493;43.344;26.226;2022-08-18T00:47:34;98779.44;;;22.77;77.09
22653;BME280;11493;43.344;26.226;2022-08-18T00:50:16;98782.22;;;22.77;77.09
22653;BME280;11493;43.344;26.226;2022-08-18T00:52:47;98783.44;;;22.76;77.27
22653;BME280;11493;43.344;26.226;2022-08-18T00:55:16;98780.66;;;22.73;77.17
22653;BME280;11493;43.344;26.226;2022-08-18T00:57:47;98772.25;;;22.69;77.21
22653;BME280;11493;43.344;26.226;2022-08-18T01:00:16;98783.91;;;22.64;77.33
22653;BME280;11493;43.344;26.226;2022-08-18T01:02:47;98779.94;;;22.54;77.69
22653;BME280;11493;43.344;26.226;2022-08-18T01:05:17;98777.94;;;22.55;77.64
22653;BME280;11493;43.344;26.226;2022-08-18T01:07:48;98776.38;;;22.47;77.62
22653;BME280;11493;43.344;26.226;2022-08-18T01:10:19;98784.03;;;22.39;77.72
22653;BME280;11493;43.344;26.226;2022-08-18T01:12:52;98776.47;;;22.29;77.60
22653;BME280;11493;43.344;26.226;2022-08-18T01:15:21;98782.09;;;22.25;78.02
22653;BME280;11493;43.344;26.226;2022-08-18T01:18:00;98783.75;;;22.16;78.22
22653;BME280;11493;43.344;26.226;2022-08-18T01:23:47;98782.97;;;22.05;78.37
22653;BME280;11493;43.344;26.226;2022-08-18T01:26:17;98774.56;;;21.97;78.57
22653;BME280;11493;43.344;26.226;2022-08-18T01:28:45;98784.56;;;22.06;78.88
22653;BME280;11493;43.344;26.226;2022-08-18T01:31:29;98763.00;;;21.81;79.24
22653;BME280;11493;43.344;26.226;2022-08-18T01:33:58;98777.38;;;21.90;79.79
22653;BME280;11493;43.344;26.226;2022-08-18T01:36:27;98778.97;;;21.95;79.98
22653;BME280;11493;43.344;26.226;2022-08-18T01:38:55;98773.38;;;21.95;79.97
22653;BME280;11493;43.344;26.226;2022-08-18T01:41:23;98777.34;;;21.97;80.11
22653;BME280;11493;43.344;26.226;2022-08-18T01:43:58;98771.75;;;21.97;80.43
22653;BME280;11493;43.344;26.226;2022-08-18T01:46:27;98773.75;;;21.97;79.78
22653;BME280;11493;43.344;26.226;2022-08-18T01:48:55;98779.75;;;22.06;79.21
22653;BME280;11493;43.344;26.226;2022-08-18T01:51:26;98761.34;;;21.98;79.36
22653;BME280;11493;43.344;26.226;2022-08-18T01:54:10;98768.56;;;21.92;79.41
22653;BME280;11493;43.344;26.226;2022-08-18T01:56:39;98785.38;;;21.95;80.03
22653;BME280;11493;43.344;26.226;2022-08-18T01:59:09;98785.38;;;21.92;80.09
22653;BME280;11493;43.344;26.226;2022-08-18T02:01:40;98792.59;;;21.82;80.54
22653;BME280;11493;43.344;26.226;2022-08-18T02:04:20;98786.19;;;21.89;80.33
22653;BME280;11493;43.344;26.226;2022-08-18T02:07:06;98790.97;;;21.92;80.62
22653;BME280;11493;43.344;26.226;2022-08-18T02:09:34;98801.78;;;21.90;80.62
22653;BME280;11493;43.344;26.226;2022-08-18T02:12:04;98798.19;;;21.86;80.72
22653;BME280;11493;43.344;26.226;2022-08-18T02:14:34;98801.41;;;21.81;81.07
22653;BME280;11493;43.344;26.226;2022-08-18T02:17:03;98817.38;;;21.91;80.73
22653;BME280;11493;43.344;26.226;2022-08-18T02:19:37;98806.19;;;21.84;79.90
22653;BME280;11493;43.344;26.226;2022-08-18T02:22:07;98817.81;;;21.79;80.43
22653;BME280;11493;43.344;26.226;2022-08-18T02:24:35;98814.22;;;21.68;80.80
22653;BME280;11493;43.344;26.226;2022-08-18T02:27:04;98818.22;;;21.56;81.30
22653;BME280;11493;43.344;26.226;2022-08-18T02:29:33;98820.25;;;21.48;81.40
22653;BME280;11493;43.344;26.226;2022-08-18T02:32:00;98817.44;;;21.41;81.10
22653;BME280;11493;43.344;26.226;2022-08-18T02:34:27;98817.06;;;21.39;80.93
22653;BME280;11493;43.344;26.226;2022-08-18T02:36:54;98805.06;;;21.35;80.75
22653;BME280;11493;43.344;26.226;2022-08-18T02:39:22;98803.47;;;21.30;80.95
22653;BME280;11493;43.344;26.226;2022-08-18T02:41:49;98801.44;;;21.24;81.00
22653;BME280;11493;43.344;26.226;2022-08-18T02:44:17;98805.00;;;21.10;81.19
22653;BME280;11493;43.344;26.226;2022-08-18T02:46:44;98795.00;;;20.98;80.99
22653;BME280;11493;43.344;26.226;2022-08-18T02:49:12;98816.59;;;21.09;81.28
22653;BME280;11493;43.344;26.226;2022-08-18T02:51:39;98816.97;;;21.04;81.57
22653;BME280;11493;43.344;26.226;2022-08-18T02:54:06;98806.97;;;20.99;81.67
22653;BME280;11493;43.344;26.226;2022-08-18T02:56:37;98822.97;;;21.06;81.74
22653;BME280;11493;43.344;26.226;2022-08-18T02:59:11;98805.38;;;20.91;81.71
22653;BME280;11493;43.344;26.226;2022-08-18T03:01:42;98814.56;;;20.98;81.73
22653;BME280;11493;43.344;26.226;2022-08-18T03:04:13;98820.19;;;21.06;81.61
22653;BME280;11493;43.344;26.226;2022-08-18T03:06:42;98836.56;;;21.11;81.47
22653;BME280;11493;43.344;26.226;2022-08-18T03:09:13;98846.97;;;21.14;81.09
22653;BME280;11493;43.344;26.226;2022-08-18T03:11:42;98824.97;;;21.02;81.24
22653;BME280;11493;43.344;26.226;2022-08-18T03:14:10;98841.38;;;21.17;81.12
22653;BME280;11493;43.344;26.226;2022-08-18T03:16:44;98848.19;;;21.20;81.37
22653;BME280;11493;43.344;26.226;2022-08-18T03:19:28;98849.38;;;21.19;81.32
22653;BME280;11493;43.344;26.226;2022-08-18T03:21:57;98824.16;;;20.97;81.72
22653;BME280;11493;43.344;26.226;2022-08-18T03:24:30;98856.97;;;21.18;81.98
22653;BME280;11493;43.344;26.226;2022-08-18T03:26:59;98856.63;;;21.23;81.69
22653;BME280;11493;43.344;26.226;2022-08-18T03:29:27;98857.38;;;21.20;81.75
22653;BME280;11493;43.344;26.226;2022-08-18T03:32:00;98844.56;;;21.09;81.87
22653;BME280;11493;43.344;26.226;2022-08-18T03:34:29;98860.97;;;21.21;82.13
22653;BME280;11493;43.344;26.226;2022-08-18T03:36:56;98856.22;;;21.28;82.24
22653;BME280;11493;43.344;26.226;2022-08-18T03:39:24;98860.22;;;21.27;82.39
22653;BME280;11493;43.344;26.226;2022-08-18T03:41:54;98858.22;;;21.28;82.54
22653;BME280;11493;43.344;26.226;2022-08-18T03:44:32;98859.81;;;21.25;82.68
22653;BME280;11493;43.344;26.226;2022-08-18T03:47:00;98861.03;;;21.28;82.21
22653;BME280;11493;43.344;26.226;2022-08-18T03:49:30;98858.22;;;21.31;82.14
22653;BME280;11493;43.344;26.226;2022-08-18T03:52:00;98861.44;;;21.41;82.59
22653;BME280;11493;43.344;26.226;2022-08-18T03:54:29;98870.22;;;21.46;82.39
22653;BME280;11493;43.344;26.226;2022-08-18T03:56:58;98862.63;;;21.47;82.00
22653;BME280;11493;43.344;26.226;2022-08-18T03:59:26;98861.41;;;21.58;81.21
22653;BME280;11493;43.344;26.226;2022-08-18T04:01:54;98857.00;;;21.61;81.42
22653;BME280;11493;43.344;26.226;2022-08-18T04:04:24;98865.41;;;21.68;80.99
22653;BME280;11493;43.344;26.226;2022-08-18T04:07:02;98867.00;;;21.73;81.01
22653;BME280;11493;43.344;26.226;2022-08-18T04:09:33;98861.41;;;21.76;81.15
22653;BME280;11493;43.344;26.226;2022-08-18T04:12:05;98843.41;;;21.63;81.26
22653;BME280;11493;43.344;26.226;2022-08-18T04:14:45;98869.41;;;21.85;81.18
22653;BME280;11493;43.344;26.226;2022-08-18T04:17:16;98873.41;;;21.91;81.13
22653;BME280;11493;43.344;26.226;2022-08-18T04:19:51;98866.19;;;21.97;80.59
22653;BME280;11493;43.344;26.226;2022-08-18T04:22:19;98882.19;;;22.21;80.25
22653;BME280;11493;43.344;26.226;2022-08-18T04:24:47;98886.13;;;22.42;79.18
22653;BME280;11493;43.344;26.226;2022-08-18T04:27:17;98890.09;;;22.55;78.48
22653;BME280;11493;43.344;26.226;2022-08-18T04:29:46;98891.69;;;22.56;78.92
22653;BME280;11493;43.344;26.226;2022-08-18T04:32:13;98896.13;;;22.53;78.88
22653;BME280;11493;43.344;26.226;2022-08-18T04:34:41;98893.69;;;22.55;78.91
22653;BME280;11493;43.344;26.226;2022-08-18T04:37:08;98899.28;;;22.59;77.90
22653;BME280;11493;43.344;26.226;2022-08-18T04:39:36;98899.22;;;22.77;77.26
22653;BME280;11493;43.344;26.226;2022-08-18T04:42:04;98897.97;;;22.96;76.61
22653;BME280;11493;43.344;26.226;2022-08-18T04:44:33;98895.06;;;23.10;75.91
22653;BME280;11493;43.344;26.226;2022-08-18T04:47:01;98903.84;;;23.19;76.01
22653;BME280;11493;43.344;26.226;2022-08-18T04:49:28;98903.41;;;23.24;75.82
22653;BME280;11493;43.344;26.226;2022-08-18T04:51:57;98897.06;;;23.13;77.12
22653;BME280;11493;43.344;26.226;2022-08-18T04:55:04;98896.25;;;23.12;77.07
22653;BME280;11493;43.344;26.226;2022-08-18T04:57:31;98898.66;;;23.17;76.85
22653;BME280;11493;43.344;26.226;2022-08-18T05:00:04;98910.66;;;23.21;76.55
22653;BME280;11493;43.344;26.226;2022-08-18T05:02:33;98913.00;;;23.30;76.50
22653;BME280;11493;43.344;26.226;2022-08-18T05:05:01;98908.50;;;23.43;75.81
22653;BME280;11493;43.344;26.226;2022-08-18T05:07:30;98900.84;;;23.54;75.10
22653;BME280;11493;43.344;26.226;2022-08-18T05:09:58;98889.63;;;23.54;74.71
22653;BME280;11493;43.344;26.226;2022-08-18T05:12:25;98893.50;;;23.71;74.60
22653;BME280;11493;43.344;26.226;2022-08-18T05:14:53;98908.22;;;23.82;74.66
22653;BME280;11493;43.344;26.226;2022-08-18T05:17:23;98904.56;;;23.89;73.90
22653;BME280;11493;43.344;26.226;2022-08-18T05:19:58;98909.25;;;24.03;73.87
22653;BME280;11493;43.344;26.226;2022-08-18T05:22:36;98907.22;;;24.07;73.22
22653;BME280;11493;43.344;26.226;2022-08-18T05:25:06;98918.72;;;24.23;72.66
22653;BME280;11493;43.344;26.226;2022-08-18T05:27:38;98898.63;;;24.28;72.14
22653;BME280;11493;43.344;26.226;2022-08-18T05:30:07;98910.59;;;24.36;72.10
22653;BME280;11493;43.344;26.226;2022-08-18T05:32:43;98904.13;;;24.39;71.85
22653;BME280;11493;43.344;26.226;2022-08-18T05:35:29;98907.31;;;24.41;71.70
22653;BME280;11493;43.344;26.226;2022-08-18T05:40:33;98911.16;;;24.54;71.67
22653;BME280;11493;43.344;26.226;2022-08-18T05:43:01;98915.84;;;24.68;71.41
22653;BME280;11493;43.344;26.226;2022-08-18T05:45:30;98907.31;;;24.75;70.90
22653;BME280;11493;43.344;26.226;2022-08-18T05:48:00;98908.34;;;24.88;70.82
22653;BME280;11493;43.344;26.226;2022-08-18T05:50:31;98909.47;;;24.98;70.44
22653;BME280;11493;43.344;26.226;2022-08-18T05:53:06;98904.09;;;25.10;69.87
22653;BME280;11493;43.344;26.226;2022-08-18T05:58:36;98914.66;;;25.30;69.10
22653;BME280;11493;43.344;26.226;2022-08-18T06:01:23;98901.25;;;25.37;68.96
22653;BME280;11493;43.344;26.226;2022-08-18T06:06:35;98916.56;;;25.63;68.31
22653;BME280;11493;43.344;26.226;2022-08-18T06:09:26;98921.66;;;25.75;68.31
22653;BME280;11493;43.344;26.226;2022-08-18T06:12:02;98915.03;;;25.85;67.42
22653;BME280;11493;43.344;26.226;2022-08-18T06:14:37;98914.00;;;25.99;66.64
22653;BME280;11493;43.344;26.226;2022-08-18T06:25:25;98912.59;;;26.34;64.04
22653;BME280;11493;43.344;26.226;2022-08-18T06:28:11;98910.00;;;26.43;64.22
22653;BME280;11493;43.344;26.226;2022-08-18T06:39:17;98916.00;;;26.85;62.00
22653;BME280;11493;43.344;26.226;2022-08-18T06:41:50;98912.13;;;26.99;61.17
22653;BME280;11493;43.344;26.226;2022-08-18T06:53:05;98921.44;;;27.52;59.87
22653;BME280;11493;43.344;26.226;2022-08-18T06:55:57;98922.38;;;27.65;59.33
22653;BME280;11493;43.344;26.226;2022-08-18T06:58:34;98929.63;;;27.82;58.65
22653;BME280;11493;43.344;26.226;2022-08-18T07:01:05;98930.16;;;27.93;58.42
22653;BME280;11493;43.344;26.226;2022-08-18T07:03:51;98920.25;;;28.01;58.70
22653;BME280;11493;43.344;26.226;2022-08-18T07:08:52;98903.28;;;28.18;58.84
22653;BME280;11493;43.344;26.226;2022-08-18T07:11:28;98902.75;;;28.23;57.79
22653;BME280;11493;43.344;26.226;2022-08-18T07:14:11;98907.69;;;28.35;57.74
22653;BME280;11493;43.344;26.226;2022-08-18T07:16:43;98911.00;;;28.46;56.87
22653;BME280;11493;43.344;26.226;2022-08-18T07:19:28;98906.75;;;28.54;56.49
22653;BME280;11493;43.344;26.226;2022-08-18T07:22:14;98909.19;;;28.68;55.37
22653;BME280;11493;43.344;26.226;2022-08-18T07:24:47;98879.94;;;28.59;55.36
22653;BME280;11493;43.344;26.226;2022-08-18T07:32:44;98905.13;;;29.11;54.67
22653;BME280;11493;43.344;26.226;2022-08-18T07:35:18;98912.97;;;29.20;54.18
22653;BME280;11493;43.344;26.226;2022-08-18T07:38:09;98893.56;;;29.18;53.90
22653;BME280;11493;43.344;26.226;2022-08-18T07:41:09;98905.16;;;29.36;53.62
22653;BME280;11493;43.344;26.226;2022-08-18T07:48:52;98893.28;;;29.54;52.07
22653;BME280;11493;43.344;26.226;2022-08-18T07:51:51;98900.22;;;29.66;52.59
22653;BME280;11493;43.344;26.226;2022-08-18T07:57:32;98912.50;;;29.97;51.60
22653;BME280;11493;43.344;26.226;2022-08-18T08:00:27;98902.44;;;29.84;50.53
22653;BME280;11493;43.344;26.226;2022-08-18T08:03:29;98913.88;;;29.93;50.10
22653;BME280;11493;43.344;26.226;2022-08-18T08:06:26;98921.38;;;29.99;50.99
22653;BME280;11493;43.344;26.226;2022-08-18T08:15:06;98908.69;;;30.04;50.51
22653;BME280;11493;43.344;26.226;2022-08-18T08:17:51;98910.03;;;30.12;50.25
22653;BME280;11493;43.344;26.226;2022-08-18T08:20:47;98914.28;;;30.29;49.79
22653;BME280;11493;43.344;26.226;2022-08-18T08:23:51;98906.66;;;30.39;49.92
22653;BME280;11493;43.344;26.226;2022-08-18T08:29:52;98904.78;;;30.58;48.14
22653;BME280;11493;43.344;26.226;2022-08-18T08:32:23;98904.88;;;30.54;47.81
22653;BME280;11493;43.344;26.226;2022-08-18T08:35:03;98910.28;;;30.74;48.16
22653;BME280;11493;43.344;26.226;2022-08-18T08:40:27;98901.41;;;30.94;47.70
22653;BME280;11493;43.344;26.226;2022-08-18T08:43:17;98898.91;;;30.96;47.15
22653;BME280;11493;43.344;26.226;2022-08-18T08:48:29;98883.84;;;31.08;47.25
22653;BME280;11493;43.344;26.226;2022-08-18T08:51:33;98899.25;;;31.20;45.12
22653;BME280;11493;43.344;26.226;2022-08-18T08:54:24;98894.50;;;31.26;44.51
22653;BME280;11493;43.344;26.226;2022-08-18T08:56:54;98897.22;;;31.29;45.56
22653;BME280;11493;43.344;26.226;2022-08-18T08:59:25;98893.13;;;31.30;44.73
22653;BME280;11493;43.344;26.226;2022-08-18T09:05:21;98882.00;;;31.14;44.69
22653;BME280;11493;43.344;26.226;2022-08-18T09:13:42;98888.91;;;31.44;45.74
22653;BME280;11493;43.344;26.226;2022-08-18T09:18:54;98884.81;;;31.45;45.68
22653;BME280;11493;43.344;26.226;2022-08-18T09:24:21;98879.50;;;31.56;45.91
22653;BME280;11493;43.344;26.226;2022-08-18T09:29:48;98877.13;;;31.55;46.05
22653;BME280;11493;43.344;26.226;2022-08-18T09:40:17;98866.19;;;31.84;45.90
22653;BME280;11493;43.344;26.226;2022-08-18T09:46:49;98867.63;;;32.07;45.40
22653;BME280;11493;43.344;26.226;2022-08-18T09:51:56;98867.47;;;32.20;45.14
22653;BME280;11493;43.344;26.226;2022-08-18T09:54:30;98870.34;;;32.20;44.97
22653;BME280;11493;43.344;26.226;2022-08-18T10:02:07;98867.59;;;31.98;45.36
22653;BME280;11493;43.344;26.226;2022-08-18T10:04:47;98857.66;;;31.84;45.45
22653;BME280;11493;43.344;26.226;2022-08-18T10:07:31;98872.16;;;31.77;45.43
22653;BME280;11493;43.344;26.226;2022-08-18T10:21:24;98865.25;;;32.06;42.20
22653;BME280;11493;43.344;26.226;2022-08-18T10:34:47;98869.72;;;31.66;42.87
22653;BME280;11493;43.344;26.226;2022-08-18T10:45:29;98871.59;;;31.60;43.78
22653;BME280;11493;43.344;26.226;2022-08-18T10:48:09;98862.38;;;31.78;43.58
22653;BME280;11493;43.344;26.226;2022-08-18T10:51:17;98842.56;;;31.65;42.19
22653;BME280;11493;43.344;26.226;2022-08-18T10:56:52;98845.34;;;32.15;41.98
22653;BME280;11493;43.344;26.226;2022-08-18T10:59:33;98851.88;;;32.52;40.88
22653;BME280;11493;43.344;26.226;2022-08-18T11:04:50;98842.53;;;32.51;40.27
22653;BME280;11493;43.344;26.226;2022-08-18T11:07:29;98843.47;;;32.57;41.19
22653;BME280;11493;43.344;26.226;2022-08-18T11:10:18;98842.84;;;32.62;40.38
22653;BME280;11493;43.344;26.226;2022-08-18T11:18:43;98855.34;;;32.47;40.94
22653;BME280;11493;43.344;26.226;2022-08-18T11:24:14;98856.13;;;32.38;41.04
22653;BME280;11493;43.344;26.226;2022-08-18T11:27:18;98849.00;;;32.24;41.40
22653;BME280;11493;43.344;26.226;2022-08-18T11:29:50;98849.81;;;32.34;41.29
22653;BME280;11493;43.344;26.226;2022-08-18T11:32:29;98851.88;;;32.33;41.70
22653;BME280;11493;43.344;26.226;2022-08-18T11:43:15;98838.69;;;32.91;40.65
22653;BME280;11493;43.344;26.226;2022-08-18T11:45:56;98826.19;;;32.88;40.40
22653;BME280;11493;43.344;26.226;2022-08-18T11:53:59;98824.63;;;33.39;38.96
22653;BME280;11493;43.344;26.226;2022-08-18T11:56:28;98822.44;;;33.57;38.88
22653;BME280;11493;43.344;26.226;2022-08-18T12:02:18;98813.63;;;33.46;39.58
22653;BME280;11493;43.344;26.226;2022-08-18T12:04:53;98823.88;;;33.29;39.84
22653;BME280;11493;43.344;26.226;2022-08-18T12:07:31;98794.09;;;33.21;38.54
22653;BME280;11493;43.344;26.226;2022-08-18T12:10:22;98799.84;;;33.45;37.25
22653;BME280;11493;43.344;26.226;2022-08-18T12:12:55;98802.94;;;33.32;38.32
22653;BME280;11493;43.344;26.226;2022-08-18T12:15:34;98793.28;;;33.20;38.13
22653;BME280;11493;43.344;26.226;2022-08-18T12:18:22;98803.81;;;33.05;38.46
22653;BME280;11493;43.344;26.226;2022-08-18T12:20:56;98787.00;;;33.07;38.16
22653;BME280;11493;43.344;26.226;2022-08-18T12:23:31;98791.53;;;33.23;37.72
22653;BME280;11493;43.344;26.226;2022-08-18T12:26:20;98775.81;;;33.37;37.67
22653;BME280;11493;43.344;26.226;2022-08-18T12:29:04;98786.25;;;33.40;38.10
22653;BME280;11493;43.344;26.226;2022-08-18T12:31:53;98791.75;;;33.43;39.45
22653;BME280;11493;43.344;26.226;2022-08-18T12:34:23;98790.56;;;33.59;38.41
22653;BME280;11493;43.344;26.226;2022-08-18T12:36:57;98787.25;;;33.84;37.83
22653;BME280;11493;43.344;26.226;2022-08-18T12:39:28;98793.09;;;33.90;37.83
22653;BME280;11493;43.344;26.226;2022-08-18T12:41:58;98796.88;;;33.63;37.38
22653;BME280;11493;43.344;26.226;2022-08-18T12:44:26;98798.25;;;33.44;37.93
22653;BME280;11493;43.344;26.226;2022-08-18T12:46:54;98788.50;;;33.36;38.38
22653;BME280;11493;43.344;26.226;2022-08-18T12:49:23;98776.31;;;33.35;37.69
22653;BME280;11493;43.344;26.226;2022-08-18T12:51:52;98764.34;;;33.46;36.63
22653;BME280;11493;43.344;26.226;2022-08-18T12:54:22;98766.97;;;33.58;36.56
22653;BME280;11493;43.344;26.226;2022-08-18T12:56:53;98776.06;;;33.48;37.65
22653;BME280;11493;43.344;26.226;2022-08-18T12:59:22;98770.47;;;33.53;37.80
22653;BME280;11493;43.344;26.226;2022-08-18T13:01:51;98772.31;;;33.66;37.14
22653;BME280;11493;43.344;26.226;2022-08-18T13:04:25;98763.13;;;33.61;36.49
22653;BME280;11493;43.344;26.226;2022-08-18T13:06:55;98763.63;;;33.60;35.96
22653;BME280;11493;43.344;26.226;2022-08-18T13:09:30;98760.28;;;33.61;36.44
22653;BME280;11493;43.344;26.226;2022-08-18T13:12:14;98759.50;;;33.85;36.47
22653;BME280;11493;43.344;26.226;2022-08-18T13:14:43;98753.38;;;34.01;36.10
22653;BME280;11493;43.344;26.226;2022-08-18T13:17:12;98747.44;;;33.90;36.36
22653;BME280;11493;43.344;26.226;2022-08-18T13:20:12;98747.06;;;33.97;37.25
22653;BME280;11493;43.344;26.226;2022-08-18T13:22:39;98732.72;;;34.06;37.21
22653;BME280;11493;43.344;26.226;2022-08-18T13:25:13;98751.81;;;34.15;36.73
22653;BME280;11493;43.344;26.226;2022-08-18T13:27:59;98739.00;;;34.10;37.02
22653;BME280;11493;43.344;26.226;2022-08-18T13:30:28;98737.13;;;34.22;37.49
22653;BME280;11493;43.344;26.226;2022-08-18T13:32:59;98726.81;;;34.24;36.60
22653;BME280;11493;43.344;26.226;2022-08-18T13:35:48;98723.03;;;34.18;36.69
22653;BME280;11493;43.344;26.226;2022-08-18T13:38:21;98731.13;;;34.20;36.42
22653;BME280;11493;43.344;26.226;2022-08-18T13:40:58;98724.72;;;34.25;36.07
22653;BME280;11493;43.344;26.226;2022-08-18T13:43:30;98712.47;;;34.34;36.04
22653;BME280;11493;43.344;26.226;2022-08-18T13:46:01;98712.25;;;34.37;36.20
22653;BME280;11493;43.344;26.226;2022-08-18T13:48:30;98715.31;;;34.48;36.07
22653;BME280;11493;43.344;26.226;2022-08-18T13:50:58;98719.06;;;34.54;36.52
22653;BME280;11493;43.344;26.226;2022-08-18T13:53:29;98723.69;;;34.67;36.38
22653;BME280;11493;43.344;26.226;2022-08-18T13:55:57;98715.00;;;34.76;35.48
22653;BME280;11493;43.344;26.226;2022-08-18T13:58:26;98727.63;;;34.54;35.48
22653;BME280;11493;43.344;26.226;2022-08-18T14:00:58;98713.75;;;34.62;35.80
22653;BME280;11493;43.344;26.226;2022-08-18T14:03:45;98718.78;;;34.52;35.59
22653;BME280;11493;43.344;26.226;2022-08-18T14:06:14;98723.09;;;34.48;35.89
22653;BME280;11493;43.344;26.226;2022-08-18T14:08:50;98729.41;;;34.37;36.02
22653;BME280;11493;43.344;26.226;2022-08-18T14:11:24;98724.97;;;34.36;35.64
22653;BME280;11493;43.344;26.226;2022-08-18T14:13:59;98727.97;;;34.18;35.56
22653;BME280;11493;43.344;26.226;2022-08-18T14:16:27;98729.75;;;34.01;35.87
22653;BME280;11493;43.344;26.226;2022-08-18T14:18:57;98731.53;;;34.13;35.57
22653;BME280;11493;43.344;26.226;2022-08-18T14:21:49;98712.03;;;34.26;35.56
22653;BME280;11493;43.344;26.226;2022-08-18T14:24:39;98720.94;;;34.43;34.89
22653;BME280;11493;43.344;26.226;2022-08-18T14:27:36;98715.63;;;34.50;34.71
22653;BME280;11493;43.344;26.226;2022-08-18T14:30:07;98722.50;;;34.73;34.63
22653;BME280;11493;43.344;26.226;2022-08-18T14:32:37;98706.34;;;34.70;34.18
22653;BME280;11493;43.344;26.226;2022-08-18T14:35:16;98705.16;;;34.62;34.49
22653;BME280;11493;43.344;26.226;2022-08-18T14:38:04;98694.72;;;34.44;34.37
22653;BME280;11493;43.344;26.226;2022-08-18T14:40:38;98687.00;;;34.21;34.58
22653;BME280;11493;43.344;26.226;2022-08-18T14:43:10;98709.28;;;34.02;34.75
22653;BME280;11493;43.344;26.226;2022-08-18T14:45:41;98710.84;;;33.79;35.21
22653;BME280;11493;43.344;26.226;2022-08-18T14:48:17;98704.81;;;33.62;35.62
22653;BME280;11493;43.344;26.226;2022-08-18T14:50:50;98713.44;;;33.53;35.96
22653;BME280;11493;43.344;26.226;2022-08-18T14:53:20;98701.59;;;33.46;35.94
22653;BME280;11493;43.344;26.226;2022-08-18T14:55:51;98698.84;;;33.37;35.93
22653;BME280;11493;43.344;26.226;2022-08-18T14:58:21;98705.81;;;33.36;36.54
22653;BME280;11493;43.344;26.226;2022-08-18T15:01:03;98705.81;;;33.26;36.45
22653;BME280;11493;43.344;26.226;2022-08-18T15:03:39;98693.06;;;33.13;36.58
22653;BME280;11493;43.344;26.226;2022-08-18T15:06:07;98688.47;;;33.15;36.82
22653;BME280;11493;43.344;26.226;2022-08-18T15:08:43;98689.44;;;33.12;37.29
22653;BME280;11493;43.344;26.226;2022-08-18T15:11:13;98688.03;;;33.08;37.02
22653;BME280;11493;43.344;26.226;2022-08-18T15:13:43;98671.13;;;33.04;36.90
22653;BME280;11493;43.344;26.226;2022-08-18T15:16:15;98687.97;;;33.17;37.24
22653;BME280;11493;43.344;26.226;2022-08-18T15:18:43;98696.53;;;33.17;37.46
22653;BME280;11493;43.344;26.226;2022-08-18T15:21:12;98688.47;;;33.15;37.56
22653;BME280;11493;43.344;26.226;2022-08-18T15:24:08;98686.63;;;33.03;37.58
22653;BME280;11493;43.344;26.226;2022-08-18T15:26:55;98689.63;;;33.09;37.55
22653;BME280;11493;43.344;26.226;2022-08-18T15:29:32;98686.94;;;33.05;37.50
22653;BME280;11493;43.344;26.226;2022-08-18T15:32:01;98678.75;;;32.98;37.64
22653;BME280;11493;43.344;26.226;2022-08-18T15:34:36;98689.19;;;33.01;38.18
22653;BME280;11493;43.344;26.226;2022-08-18T15:37:14;98687.34;;;32.89;38.32
22653;BME280;11493;43.344;26.226;2022-08-18T15:39:47;98680.41;;;32.81;38.73
22653;BME280;11493;43.344;26.226;2022-08-18T15:42:22;98698.91;;;32.85;38.50
22653;BME280;11493;43.344;26.226;2022-08-18T15:44:53;98690.41;;;32.76;38.40
22653;BME280;11493;43.344;26.226;2022-08-18T15:47:22;98681.88;;;32.67;38.97
22653;BME280;11493;43.344;26.226;2022-08-18T15:49:51;98689.44;;;32.70;39.13
22653;BME280;11493;43.344;26.226;2022-08-18T15:52:22;98688.06;;;32.65;39.18
22653;BME280;11493;43.344;26.226;2022-08-18T15:54:53;98687.44;;;32.61;39.00
22653;BME280;11493;43.344;26.226;2022-08-18T15:57:28;98690.63;;;32.54;39.66
22653;BME280;11493;43.344;26.226;2022-08-18T16:00:07;98693.31;;;32.58;39.44
22653;BME280;11493;43.344;26.226;2022-08-18T16:02:39;98693.75;;;32.65;39.86
22653;BME280;11493;43.344;26.226;2022-08-18T16:05:15;98696.00;;;32.61;40.39
22653;BME280;11493;43.344;26.226;2022-08-18T16:07:43;98699.94;;;32.64;40.55
22653;BME280;11493;43.344;26.226;2022-08-18T16:10:17;98689.81;;;32.63;40.63
22653;BME280;11493;43.344;26.226;2022-08-18T16:12:45;98689.38;;;32.55;40.71
22653;BME280;11493;43.344;26.226;2022-08-18T16:15:18;98694.91;;;32.50;41.36
22653;BME280;11493;43.344;26.226;2022-08-18T16:17:53;98694.78;;;32.44;41.50